createdAt,value
2023-04-23T00:00:23.855Z,19.23
2023-04-23T00:02:52.921Z,24.45
2023-04-23T00:05:20.189Z,25.95
2023-04-23T00:07:46.759Z,23.23
2023-04-23T00:10:13.297Z,26.08
2023-04-23T00:12:39.878Z,26.70
2023-04-23T00:15:06.932Z,15.10
2023-04-23T00:17:33.304Z,19.73
2023-04-23T00:19:59.620Z,23.52
2023-04-23T00:22:25.996Z,19.92
2023-04-23T00:24:52.366Z,19.88
2023-04-23T00:27:21.029Z,20.25
2023-04-23T00:29:47.375Z,24.20
2023-04-23T00:32:14.894Z,18.25
2023-04-23T00:34:41.562Z,22.63
2023-04-23T00:37:08.212Z,24.65
2023-04-23T00:39:35.929Z,21.98
2023-04-23T00:42:07.091Z,19.23
2023-04-23T00:44:33.513Z,19.85
2023-04-23T00:47:00.454Z,21.83
2023-04-23T00:49:27.231Z,20.75
2023-04-23T00:51:53.624Z,18.27
2023-04-23T00:54:19.965Z,19.90
2023-04-23T00:56:46.468Z,21.20
2023-04-23T00:59:12.818Z,16.90
2023-04-23T01:01:39.419Z,20.73
2023-04-23T01:04:06.165Z,19.92
2023-04-23T01:06:32.799Z,21.67
2023-04-23T01:08:59.385Z,19.63
2023-04-23T01:11:25.765Z,21.52
2023-04-23T01:13:52.194Z,16.88
2023-04-23T01:16:18.815Z,20.92
2023-04-23T01:18:45.207Z,16.77
2023-04-23T01:21:12.206Z,19.08
2023-04-23T01:23:38.815Z,26.13
2023-04-23T01:26:05.359Z,19.25
2023-04-23T01:28:32.215Z,20.65
2023-04-23T01:30:59.114Z,23.40
2023-04-23T01:33:26.305Z,26.65
2023-04-23T01:35:53.131Z,21.23
2023-04-23T01:38:20.170Z,23.77
2023-04-23T01:40:46.940Z,20.42
2023-04-23T01:43:14.558Z,18.58
2023-04-23T01:45:41.409Z,23.92
2023-04-23T01:48:07.774Z,25.23
2023-04-23T01:50:34.395Z,23.17
2023-04-23T01:53:00.783Z,25.75
2023-04-23T01:55:27.373Z,23.02
2023-04-23T01:57:53.797Z,20.10
2023-04-23T02:00:20.680Z,10.68
2023-04-23T02:02:47.107Z,21.00
2023-04-23T02:05:15.041Z,24.23
2023-04-23T02:07:41.525Z,22.35
2023-04-23T02:10:08.364Z,23.88
2023-04-23T02:12:34.989Z,22.70
2023-04-23T02:15:01.457Z,19.38
2023-04-23T02:17:28.266Z,21.42
2023-04-23T02:19:55.860Z,18.98
2023-04-23T02:22:24.993Z,19.92
2023-04-23T02:24:52.665Z,14.18
2023-04-23T02:27:19.428Z,19.38
2023-04-23T02:29:46.169Z,18.35
2023-04-23T02:32:12.548Z,18.25
2023-04-23T02:34:39.055Z,15.85
2023-04-23T02:37:05.822Z,17.67
2023-04-23T02:39:32.449Z,16.95
2023-04-23T02:41:58.892Z,14.60
2023-04-23T02:44:25.622Z,16.25
2023-04-23T02:46:52.440Z,17.48
2023-04-23T02:49:20.280Z,17.08
2023-04-23T02:51:46.917Z,17.80
2023-04-23T02:54:13.600Z,15.93
2023-04-23T02:56:40.061Z,15.80
2023-04-23T02:59:06.842Z,16.70
2023-04-23T03:01:33.309Z,17.02
2023-04-23T03:04:00.180Z,15.52
2023-04-23T03:06:26.848Z,16.92
2023-04-23T03:08:53.185Z,14.52
2023-04-23T03:11:19.510Z,15.38
2023-04-23T03:13:45.928Z,15.20
2023-04-23T03:16:12.315Z,12.48
2023-04-23T03:18:38.747Z,14.50
2023-04-23T03:21:05.133Z,12.82
2023-04-23T03:23:31.587Z,13.80
2023-04-23T03:25:58.016Z,15.10
2023-04-23T03:28:24.430Z,11.20
2023-04-23T03:30:50.897Z,13.82
2023-04-23T03:33:17.288Z,13.98
2023-04-23T03:35:43.730Z,15.63
2023-04-23T03:38:10.073Z,10.27
2023-04-23T03:40:36.442Z,10.13
2023-04-23T03:43:02.844Z,14.57
2023-04-23T03:45:30.260Z,15.45
2023-04-23T03:47:56.630Z,13.10
2023-04-23T03:50:22.981Z,12.80
2023-04-23T03:52:52.438Z,14.77
2023-04-23T03:55:20.620Z,14.73
2023-04-23T03:57:46.982Z,15.63
2023-04-23T04:00:13.691Z,14.13
2023-04-23T04:02:41.017Z,11.38
2023-04-23T04:05:07.965Z,15.23
2023-04-23T04:07:35.537Z,12.90
2023-04-23T04:10:03.276Z,11.07
2023-04-23T04:12:29.632Z,10.73
2023-04-23T04:14:56.416Z,14.13
2023-04-23T04:17:22.882Z,15.77
2023-04-23T04:19:49.368Z,16.35
2023-04-23T04:22:16.210Z,12.15
2023-04-23T04:24:43.812Z,14.98
2023-04-23T04:27:11.578Z,14.20
2023-04-23T04:29:40.746Z,11.45
2023-04-23T04:32:08.506Z,15.23
2023-04-23T04:34:36.123Z,12.55
2023-04-23T04:37:02.436Z,12.63
2023-04-23T04:39:28.893Z,14.77
2023-04-23T04:41:55.360Z,14.13
2023-04-23T04:44:22.064Z,14.77
2023-04-23T04:46:48.456Z,14.05
2023-04-23T04:49:15.191Z,14.05
2023-04-23T04:51:41.619Z,13.18
2023-04-23T04:54:08.048Z,14.30
2023-04-23T04:56:34.861Z,14.88
2023-04-23T04:59:01.595Z,15.00
2023-04-23T05:01:28.930Z,13.93
2023-04-23T05:03:56.297Z,13.40
2023-04-23T05:06:23.074Z,14.52
2023-04-23T05:08:49.583Z,14.80
2023-04-23T05:11:16.742Z,13.93
2023-04-23T05:13:43.726Z,14.05
2023-04-23T05:16:10.976Z,13.65
2023-04-23T05:18:37.893Z,14.20
2023-04-23T05:21:04.503Z,12.20
2023-04-23T05:23:30.971Z,13.40
2023-04-23T05:25:58.670Z,12.70
2023-04-23T05:28:25.368Z,13.60
2023-04-23T05:30:52.049Z,13.95
2023-04-23T05:33:18.512Z,12.30
2023-04-23T05:35:44.863Z,12.90
2023-04-23T05:38:11.691Z,12.45
2023-04-23T05:40:38.523Z,13.57
2023-04-23T05:43:04.914Z,11.10
2023-04-23T05:45:31.221Z,11.88
2023-04-23T05:47:57.661Z,12.40
2023-04-23T05:50:24.044Z,13.85
2023-04-23T05:52:50.628Z,13.25
2023-04-23T05:55:18.308Z,12.57
2023-04-23T05:57:44.704Z,12.70
2023-04-23T06:00:11.834Z,11.45
2023-04-23T06:02:38.690Z,12.18
2023-04-23T06:05:06.220Z,13.52
2023-04-23T06:07:32.871Z,13.27
2023-04-23T06:09:59.448Z,12.63
2023-04-23T06:12:25.964Z,12.02
2023-04-23T06:14:52.706Z,13.00
2023-04-23T06:17:19.247Z,11.60
2023-04-23T06:19:45.661Z,10.77
2023-04-23T06:22:12.023Z,11.02
2023-04-23T06:24:38.907Z,11.00
2023-04-23T06:27:05.417Z,11.73
2023-04-23T06:29:32.058Z,10.77
2023-04-23T06:32:01.728Z,11.63
2023-04-23T06:34:28.037Z,10.15
2023-04-23T06:36:54.445Z,10.30
2023-04-23T06:39:21.309Z,10.13
2023-04-23T06:41:47.688Z,9.27
2023-04-23T06:44:14.021Z,9.68
2023-04-23T06:46:40.470Z,7.95
2023-04-23T06:49:06.897Z,7.60
2023-04-23T06:51:34.588Z,8.10
2023-04-23T06:54:00.976Z,7.50
2023-04-23T06:56:27.515Z,7.85
2023-04-23T06:58:53.858Z,6.70
2023-04-23T07:01:20.389Z,6.88
2023-04-23T07:03:49.293Z,6.95
2023-04-23T07:06:16.124Z,6.65
2023-04-23T07:08:43.175Z,6.57
2023-04-23T07:11:10.644Z,6.05
2023-04-23T07:13:37.333Z,6.75
2023-04-23T07:16:03.811Z,6.57
2023-04-23T07:18:30.235Z,6.35
2023-04-23T07:20:56.750Z,5.45
2023-04-23T07:23:23.143Z,5.88
2023-04-23T07:25:49.484Z,5.47
2023-04-23T07:28:15.820Z,5.35
2023-04-23T07:30:42.214Z,5.75
2023-04-23T07:33:08.681Z,6.05
2023-04-23T07:35:35.257Z,4.93
2023-04-23T07:38:01.687Z,4.53
2023-04-23T07:40:28.063Z,4.18
2023-04-23T07:42:54.523Z,5.38
2023-04-23T07:45:21.459Z,5.10
2023-04-23T07:47:48.102Z,5.00
2023-04-23T07:50:14.893Z,4.60
2023-04-23T07:52:41.547Z,3.65
2023-04-23T07:55:08.314Z,4.70
2023-04-23T07:57:34.683Z,4.43
2023-04-23T08:00:01.544Z,4.20
2023-04-23T08:02:28.467Z,4.22
2023-04-23T08:04:55.447Z,3.80
2023-04-23T08:07:22.259Z,4.90
2023-04-23T08:09:49.039Z,4.15
2023-04-23T08:12:17.462Z,4.10
2023-04-23T08:14:46.727Z,3.97
2023-04-23T08:17:13.267Z,3.83
2023-04-23T08:19:39.874Z,4.18
2023-04-23T08:22:06.468Z,4.40
2023-04-23T08:24:32.805Z,3.97
2023-04-23T08:26:59.228Z,3.95
2023-04-23T08:29:25.674Z,3.42
2023-04-23T08:31:52.131Z,3.90
2023-04-23T08:34:18.583Z,4.30
2023-04-23T08:36:46.337Z,4.30
2023-04-23T08:39:12.825Z,4.90
2023-04-23T08:41:42.620Z,3.80
2023-04-23T08:44:11.940Z,3.42
2023-04-23T08:46:42.007Z,3.33
2023-04-23T08:49:09.222Z,4.95
2023-04-23T08:51:38.715Z,4.10
2023-04-23T08:54:08.363Z,3.72
2023-04-23T08:56:37.212Z,4.35
2023-04-23T08:59:04.066Z,4.28
2023-04-23T09:01:30.697Z,4.57
2023-04-23T09:04:02.383Z,4.10
2023-04-23T09:06:29.488Z,4.55
2023-04-23T09:08:55.936Z,4.13
2023-04-23T09:11:23.860Z,4.68
2023-04-23T09:13:50.442Z,4.93
2023-04-23T09:16:16.797Z,4.55
2023-04-23T09:18:43.654Z,5.43
2023-04-23T09:21:10.697Z,4.88
2023-04-23T09:23:38.871Z,4.75
2023-04-23T09:26:08.411Z,4.70
2023-04-23T09:28:38.217Z,4.88
2023-04-23T09:31:06.103Z,4.57
2023-04-23T09:33:35.412Z,5.78
2023-04-23T09:36:12.123Z,5.55
2023-04-23T09:38:40.913Z,3.70
2023-04-23T09:41:26.480Z,4.03
2023-04-23T09:43:53.583Z,4.30
2023-04-23T09:46:31.966Z,3.22
2023-04-23T09:48:58.388Z,3.17
2023-04-23T09:51:25.344Z,2.53
2023-04-23T09:53:51.767Z,2.60
2023-04-23T09:56:19.814Z,2.90
2023-04-23T09:58:46.517Z,2.58
2023-04-23T10:01:15.290Z,2.20
2023-04-23T10:03:44.621Z,2.83
2023-04-23T10:06:25.939Z,2.90
2023-04-23T10:11:25.074Z,2.70
2023-04-23T10:13:53.428Z,2.78
2023-04-23T10:16:23.236Z,2.28
2023-04-23T10:18:55.218Z,2.35
2023-04-23T10:21:23.823Z,2.40
2023-04-23T10:23:51.294Z,2.38
2023-04-23T10:26:20.142Z,2.22
2023-04-23T10:28:47.468Z,2.17
2023-04-23T10:31:13.837Z,2.60
2023-04-23T10:33:53.568Z,2.40
2023-04-23T10:36:25.677Z,2.15
2023-04-23T10:38:58.002Z,2.38
2023-04-23T10:41:29.087Z,2.10
2023-04-23T10:43:55.409Z,1.67
2023-04-23T10:46:27.943Z,2.05
2023-04-23T10:49:06.909Z,2.08
2023-04-23T10:52:14.808Z,2.10
2023-04-23T10:54:20.763Z,1.90
2023-04-23T10:56:57.716Z,1.73
2023-04-23T10:59:24.168Z,1.70
2023-04-23T11:01:50.776Z,1.48
2023-04-23T11:04:23.978Z,1.63
2023-04-23T11:06:51.986Z,1.77
2023-04-23T11:09:28.524Z,2.00
2023-04-23T11:11:55.144Z,1.63
2023-04-23T11:14:32.941Z,1.75
2023-04-23T11:16:59.286Z,1.65
2023-04-23T11:19:25.615Z,1.70
2023-04-23T11:21:54.730Z,1.58
2023-04-23T11:24:22.386Z,1.52
2023-04-23T11:26:51.143Z,1.58
2023-04-23T11:29:18.754Z,1.58
2023-04-23T11:31:58.473Z,2.20
2023-04-23T11:34:28.632Z,1.42
2023-04-23T11:36:55.425Z,1.17
2023-04-23T11:39:24.108Z,1.10
2023-04-23T11:41:52.334Z,1.48
2023-04-23T11:44:20.746Z,1.20
2023-04-23T11:46:48.416Z,1.67
2023-04-23T11:49:15.394Z,1.00
2023-04-23T11:51:43.675Z,1.38
2023-04-23T11:54:11.009Z,1.23
2023-04-23T11:56:37.917Z,1.50
2023-04-23T11:59:04.745Z,1.70
2023-04-23T12:01:44.663Z,1.30
2023-04-23T12:04:12.331Z,1.17
2023-04-23T12:06:41.020Z,1.83
2023-04-23T12:09:07.915Z,1.70
2023-04-23T12:11:35.325Z,1.30
2023-04-23T12:14:01.785Z,1.67
2023-04-23T12:16:39.325Z,1.00
2023-04-23T12:19:16.462Z,1.23
2023-04-23T12:21:49.064Z,1.48
2023-04-23T12:24:15.576Z,2.00
2023-04-23T12:26:43.477Z,1.40
2023-04-23T12:29:12.565Z,1.20
2023-04-23T12:31:39.198Z,1.85
2023-04-23T12:34:09.352Z,1.45
2023-04-23T12:36:36.525Z,1.88
2023-04-23T12:39:19.276Z,1.30
2023-04-23T12:41:45.738Z,1.10
2023-04-23T12:44:12.120Z,2.08
2023-04-23T12:46:38.532Z,1.98
2023-04-23T12:49:05.099Z,1.30
2023-04-23T12:51:31.392Z,1.00
2023-04-23T12:53:57.828Z,0.77
2023-04-23T12:56:24.445Z,0.65
2023-04-23T12:58:50.965Z,0.70
2023-04-23T13:01:17.311Z,1.20
2023-04-23T13:03:43.761Z,0.57
2023-04-23T13:06:10.227Z,0.65
2023-04-23T13:08:36.609Z,0.50
2023-04-23T13:11:02.972Z,0.57
2023-04-23T13:13:29.270Z,0.57
2023-04-23T13:15:55.678Z,0.70
2023-04-23T13:18:22.754Z,0.68
2023-04-23T13:20:49.245Z,0.90
2023-04-23T13:23:15.648Z,0.70
2023-04-23T13:25:42.012Z,0.70
2023-04-23T13:28:08.387Z,1.20
2023-04-23T13:30:34.699Z,1.08
2023-04-23T13:33:01.133Z,1.00
2023-04-23T13:35:27.562Z,1.10
2023-04-23T13:37:53.888Z,1.52
2023-04-23T13:40:20.647Z,1.70
2023-04-23T13:42:49.475Z,1.48
2023-04-23T13:45:16.114Z,2.03
2023-04-23T13:47:42.557Z,1.40
2023-04-23T13:50:10.349Z,2.00
2023-04-23T13:52:38.232Z,1.98
2023-04-23T13:55:05.007Z,1.80
2023-04-23T13:57:31.316Z,2.22
2023-04-23T13:59:58.408Z,1.92
2023-04-23T14:02:24.937Z,2.03
2023-04-23T14:04:51.524Z,1.55
2023-04-23T14:07:17.869Z,2.00
2023-04-23T14:09:46.501Z,2.17
2023-04-23T14:12:12.889Z,1.70
2023-04-23T14:14:39.333Z,1.88
2023-04-23T14:17:05.712Z,2.08
2023-04-23T14:19:34.600Z,1.88
2023-04-23T14:22:01.004Z,2.50
2023-04-23T14:24:34.422Z,2.30
2023-04-23T14:29:51.293Z,1.70
2023-04-23T14:32:17.764Z,1.50
2023-04-23T14:34:44.449Z,2.17
2023-04-23T14:37:11.335Z,1.45
2023-04-23T14:39:37.728Z,1.17
2023-04-23T14:42:04.170Z,0.95
2023-04-23T14:44:30.563Z,0.98
2023-04-23T14:46:57.025Z,0.85
2023-04-23T14:49:24.021Z,0.80
2023-04-23T14:51:53.975Z,1.02
2023-04-23T14:54:20.875Z,0.93
2023-04-23T14:56:47.230Z,0.85
2023-04-23T14:59:13.912Z,0.98
2023-04-23T15:01:40.485Z,1.00
2023-04-23T15:04:07.005Z,1.40
2023-04-23T15:06:33.383Z,1.25
2023-04-23T15:08:59.800Z,0.82
2023-04-23T15:11:26.246Z,1.10
2023-04-23T15:13:57.670Z,1.85
2023-04-23T15:16:44.191Z,1.52
2023-04-23T15:19:13.335Z,1.27
2023-04-23T15:21:41.914Z,0.95
2023-04-23T15:24:08.434Z,0.65
2023-04-23T15:26:34.969Z,0.90
2023-04-23T15:29:05.023Z,0.90
2023-04-23T15:31:31.681Z,0.77
2023-04-23T15:33:58.138Z,0.60
2023-04-23T15:36:24.479Z,0.75
2023-04-23T15:38:50.912Z,0.70
2023-04-23T15:41:17.733Z,1.10
2023-04-23T15:43:44.174Z,0.60
2023-04-23T15:46:10.742Z,0.57
2023-04-23T15:48:38.365Z,0.93
2023-04-23T15:51:04.979Z,0.60
2023-04-23T15:53:31.393Z,0.60
2023-04-23T15:55:57.919Z,0.70
2023-04-23T15:58:24.341Z,1.00
2023-04-23T16:00:50.826Z,0.88
2023-04-23T16:03:17.276Z,1.02
2023-04-23T16:05:44.747Z,0.98
2023-04-23T16:08:11.865Z,0.55
2023-04-23T16:10:38.314Z,1.17
2023-04-23T16:13:06.071Z,0.75
2023-04-23T16:15:32.529Z,1.00
2023-04-23T16:18:00.190Z,0.80
2023-04-23T16:20:28.120Z,0.63
2023-04-23T16:22:54.721Z,0.52
2023-04-23T16:25:21.204Z,1.13
2023-04-23T16:27:47.806Z,0.68
2023-04-23T16:30:14.272Z,0.98
2023-04-23T16:32:40.848Z,0.90
2023-04-23T16:35:07.870Z,0.70
2023-04-23T16:37:34.519Z,1.23
2023-04-23T16:40:01.391Z,0.90
2023-04-23T16:42:27.805Z,0.75
2023-04-23T16:44:54.213Z,0.57
2023-04-23T16:47:20.784Z,0.70
2023-04-23T16:49:47.170Z,0.63
2023-04-23T16:52:13.591Z,0.60
2023-04-23T16:54:40.096Z,0.68
2023-04-23T16:57:07.441Z,1.52
2023-04-23T16:59:33.982Z,0.65
2023-04-23T17:02:00.496Z,0.93
2023-04-23T17:04:27.134Z,0.70
2023-04-23T17:06:53.551Z,0.90
2023-04-23T17:09:20.121Z,0.57
2023-04-23T17:11:46.619Z,0.60
2023-04-23T17:14:13.046Z,0.60
2023-04-23T17:16:39.594Z,0.95
2023-04-23T17:19:06.258Z,0.82
2023-04-23T17:21:32.692Z,0.93
2023-04-23T17:23:59.190Z,0.93
2023-04-23T17:26:25.588Z,1.17
2023-04-23T17:28:51.980Z,0.88
2023-04-23T17:31:18.550Z,0.50
2023-04-23T17:33:45.517Z,0.68
2023-04-23T17:36:11.987Z,0.93
2023-04-23T17:38:38.395Z,0.80
2023-04-23T17:41:04.903Z,0.95
2023-04-23T17:43:37.358Z,0.60
2023-04-23T17:46:03.826Z,0.90
2023-04-23T17:48:30.478Z,0.65
2023-04-23T17:50:57.050Z,0.80
2023-04-23T17:53:23.518Z,0.70
2023-04-23T17:55:49.926Z,0.95
2023-04-23T17:58:16.502Z,0.93
2023-04-23T18:00:42.976Z,0.90
2023-04-23T18:03:10.022Z,0.80
2023-04-23T18:05:36.529Z,1.40
2023-04-23T18:08:03.036Z,0.80
2023-04-23T18:10:29.848Z,1.10
2023-04-23T18:12:56.594Z,0.90
2023-04-23T18:15:23.026Z,1.00
2023-04-23T18:17:50.359Z,1.02
2023-04-23T18:20:16.830Z,1.00
2023-04-23T18:22:44.276Z,1.00
2023-04-23T18:25:11.371Z,1.00
2023-04-23T18:27:37.964Z,0.90
2023-04-23T18:30:05.874Z,0.98
2023-04-23T18:32:37.509Z,1.00
2023-04-23T18:35:08.003Z,0.80
2023-04-23T18:37:48.152Z,0.73
2023-04-23T18:40:14.546Z,0.90
2023-04-23T18:42:41.033Z,0.70
2023-04-23T18:45:07.930Z,0.93
2023-04-23T18:47:44.272Z,0.95
2023-04-23T18:50:29.055Z,0.90
2023-04-23T18:52:55.780Z,0.73
2023-04-23T18:55:22.166Z,0.80
2023-04-23T18:57:48.606Z,2.53
2023-04-23T19:00:15.198Z,0.90
2023-04-23T19:02:41.737Z,0.73
2023-04-23T19:05:08.422Z,0.75
2023-04-23T19:07:37.224Z,1.00
2023-04-23T19:10:03.893Z,0.70
2023-04-23T19:12:30.418Z,0.60
2023-04-23T19:14:56.878Z,1.00
2023-04-23T19:17:23.247Z,1.00
2023-04-23T19:19:49.749Z,1.05
2023-04-23T19:22:16.125Z,0.90
2023-04-23T19:24:42.477Z,1.00
2023-04-23T19:27:09.114Z,0.90
2023-04-23T19:29:35.534Z,1.10
2023-04-23T19:32:01.915Z,0.63
2023-04-23T19:34:28.226Z,1.00
2023-04-23T19:36:54.601Z,0.98
2023-04-23T19:39:23.409Z,1.15
2023-04-23T19:41:49.815Z,1.08
2023-04-23T19:44:16.161Z,1.10
2023-04-23T19:46:42.500Z,0.85
2023-04-23T19:49:08.892Z,0.77
2023-04-23T19:51:37.928Z,1.15
2023-04-23T19:54:04.969Z,1.00
2023-04-23T19:56:31.443Z,1.13
2023-04-23T19:58:57.852Z,1.00
2023-04-23T20:01:24.897Z,1.08
2023-04-23T20:03:53.540Z,1.17
2023-04-23T20:06:20.864Z,1.33
2023-04-23T20:09:06.686Z,1.42
2023-04-23T20:11:36.016Z,1.20
2023-04-23T20:14:02.752Z,1.20
2023-04-23T20:16:29.143Z,1.10
2023-04-23T20:18:56.057Z,1.25
2023-04-23T20:21:22.840Z,1.20
2023-04-23T20:23:50.874Z,1.30
2023-04-23T20:26:17.702Z,1.00
2023-04-23T20:28:46.296Z,1.13
2023-04-23T20:31:12.716Z,1.35
2023-04-23T20:33:39.086Z,1.60
2023-04-23T20:36:06.726Z,1.50
2023-04-23T20:38:33.181Z,1.70
2023-04-23T20:41:02.509Z,1.70
2023-04-23T20:43:29.651Z,1.50
2023-04-23T20:45:56.732Z,1.70
2023-04-23T20:48:25.714Z,1.40
2023-04-23T20:50:52.621Z,1.90
2023-04-23T20:53:18.954Z,1.83
2023-04-23T20:55:45.503Z,0.80
2023-04-23T20:58:11.960Z,1.67
2023-04-23T21:00:38.704Z,1.50
2023-04-23T21:03:06.061Z,1.30
2023-04-23T21:05:32.621Z,1.10
2023-04-23T21:07:59.086Z,1.05
2023-04-23T21:10:25.752Z,1.08
2023-04-23T21:12:52.395Z,1.83
2023-04-23T21:15:18.914Z,1.20
2023-04-23T21:17:46.100Z,0.98
2023-04-23T21:20:13.454Z,1.55
2023-04-23T21:22:39.919Z,1.52
2023-04-23T21:25:06.497Z,1.67
2023-04-23T21:27:33.295Z,1.40
2023-04-23T21:30:00.789Z,1.58
2023-04-23T21:32:29.975Z,2.00
2023-04-23T21:34:56.535Z,1.88
2023-04-23T21:37:22.990Z,1.80
2023-04-23T21:39:49.352Z,1.85
2023-04-23T21:42:15.763Z,1.92
2023-04-23T21:44:42.426Z,2.33
2023-04-23T21:47:08.915Z,2.35
2023-04-23T21:49:35.747Z,2.28
2023-04-23T21:52:02.256Z,1.58
2023-04-23T21:54:28.891Z,1.38
2023-04-23T21:56:56.679Z,1.20
2023-04-23T21:59:24.489Z,0.90
2023-04-23T22:01:50.898Z,1.30
2023-04-23T22:04:18.566Z,0.80
2023-04-23T22:06:46.479Z,0.65
2023-04-23T22:09:13.568Z,0.50
2023-04-23T22:11:42.569Z,0.40
2023-04-23T22:14:15.604Z,0.30
2023-04-23T22:16:42.122Z,0.38
2023-04-23T22:19:08.599Z,0.50
2023-04-23T22:21:35.054Z,0.60
2023-04-23T22:24:03.657Z,0.40
2023-04-23T22:26:30.114Z,0.30
2023-04-23T22:28:56.544Z,0.50
2023-04-23T22:31:22.989Z,0.40
2023-04-23T22:33:49.359Z,0.40
2023-04-23T22:36:16.874Z,0.40
2023-04-23T22:38:43.402Z,0.40
2023-04-23T22:41:09.766Z,0.45
2023-04-23T22:43:36.068Z,0.82
2023-04-23T22:46:02.529Z,0.63
2023-04-23T22:48:29.088Z,0.32
2023-04-23T22:50:55.530Z,0.35
2023-04-23T22:53:21.879Z,0.63
2023-04-23T22:55:49.449Z,0.40
2023-04-23T22:58:15.912Z,0.50
2023-04-23T23:00:42.329Z,0.47
2023-04-23T23:03:09.357Z,0.43
2023-04-23T23:05:35.797Z,0.50
2023-04-23T23:08:02.311Z,0.75
2023-04-23T23:10:28.756Z,0.60
2023-04-23T23:12:55.307Z,0.63
2023-04-23T23:15:21.618Z,0.28
2023-04-23T23:17:47.977Z,0.32
2023-04-23T23:20:14.669Z,0.40
2023-04-23T23:22:40.994Z,0.25
2023-04-23T23:25:07.841Z,0.40
2023-04-23T23:27:34.302Z,1.00
2023-04-23T23:30:05.496Z,0.25
2023-04-23T23:32:32.766Z,0.40
2023-04-23T23:35:00.188Z,0.50
2023-04-23T23:37:26.820Z,0.40
2023-04-23T23:39:53.172Z,0.40
2023-04-23T23:42:19.529Z,0.32
2023-04-23T23:44:45.906Z,0.65
2023-04-23T23:47:12.242Z,0.40
2023-04-23T23:49:38.620Z,0.60
2023-04-23T23:52:04.965Z,0.30
2023-04-23T23:54:31.343Z,0.35
2023-04-23T23:56:58.247Z,0.40
2023-04-23T23:59:24.657Z,0.20
